sensor_id;sensor_type;location;lat;lon;timestamp;P1;durP1;ratioP1;P2;durP2;ratioP2
71038;SDS011;58692;43.212;27.908;2023-04-10T00:00:50;24.27;;;13.50;;
71038;SDS011;58692;43.212;27.908;2023-04-10T00:03:21;26.55;;;14.57;;
71038;SDS011;58692;43.212;27.908;2023-04-10T00:05:47;25.20;;;13.50;;
71038;SDS011;58692;43.212;27.908;2023-04-10T00:08:13;26.97;;;15.47;;
71038;SDS011;58692;43.212;27.908;2023-04-10T00:10:38;34.78;;;18.77;;
71038;SDS011;58692;43.212;27.908;2023-04-10T00:13:04;44.40;;;24.10;;
71038;SDS011;58692;43.212;27.908;2023-04-10T00:15:29;45.13;;;24.53;;
71038;SDS011;58692;43.212;27.908;2023-04-10T00:17:55;47.67;;;25.70;;
71038;SDS011;58692;43.212;27.908;2023-04-10T00:20:21;49.00;;;26.45;;
71038;SDS011;58692;43.212;27.908;2023-04-10T00:22:47;50.73;;;27.40;;
71038;SDS011;58692;43.212;27.908;2023-04-10T00:25:13;47.25;;;25.95;;
71038;SDS011;58692;43.212;27.908;2023-04-10T00:27:38;42.47;;;23.05;;
71038;SDS011;58692;43.212;27.908;2023-04-10T00:30:04;32.87;;;18.10;;
71038;SDS011;58692;43.212;27.908;2023-04-10T00:32:30;30.75;;;16.42;;
71038;SDS011;58692;43.212;27.908;2023-04-10T00:34:56;31.20;;;16.07;;
71038;SDS011;58692;43.212;27.908;2023-04-10T00:37:21;28.73;;;15.10;;
71038;SDS011;58692;43.212;27.908;2023-04-10T00:39:46;24.30;;;14.43;;
71038;SDS011;58692;43.212;27.908;2023-04-10T00:42:12;28.77;;;14.07;;
71038;SDS011;58692;43.212;27.908;2023-04-10T00:44:37;28.30;;;14.80;;
71038;SDS011;58692;43.212;27.908;2023-04-10T00:47:03;26.93;;;15.07;;
71038;SDS011;58692;43.212;27.908;2023-04-10T00:49:29;28.67;;;15.35;;
71038;SDS011;58692;43.212;27.908;2023-04-10T00:51:55;25.38;;;13.95;;
71038;SDS011;58692;43.212;27.908;2023-04-10T00:54:21;27.13;;;14.43;;
71038;SDS011;58692;43.212;27.908;2023-04-10T00:56:47;28.65;;;13.98;;
71038;SDS011;58692;43.212;27.908;2023-04-10T00:59:14;25.17;;;13.63;;
71038;SDS011;58692;43.212;27.908;2023-04-10T01:01:39;28.95;;;13.82;;
71038;SDS011;58692;43.212;27.908;2023-04-10T01:04:05;28.00;;;13.67;;
71038;SDS011;58692;43.212;27.908;2023-04-10T01:17:10;19.35;;;9.55;;
71038;SDS011;58692;43.212;27.908;2023-04-10T01:22:24;18.53;;;9.83;;
71038;SDS011;58692;43.212;27.908;2023-04-10T01:25:00;22.52;;;10.27;;
71038;SDS011;58692;43.212;27.908;2023-04-10T01:30:18;20.15;;;10.23;;
71038;SDS011;58692;43.212;27.908;2023-04-10T01:32:47;21.75;;;10.27;;
71038;SDS011;58692;43.212;27.908;2023-04-10T01:35:13;19.73;;;10.40;;
71038;SDS011;58692;43.212;27.908;2023-04-10T01:37:40;18.92;;;10.65;;
71038;SDS011;58692;43.212;27.908;2023-04-10T01:40:09;20.67;;;10.80;;
71038;SDS011;58692;43.212;27.908;2023-04-10T01:42:40;22.70;;;9.93;;
71038;SDS011;58692;43.212;27.908;2023-04-10T01:45:11;18.98;;;10.07;;
71038;SDS011;58692;43.212;27.908;2023-04-10T01:47:41;20.07;;;10.20;;
71038;SDS011;58692;43.212;27.908;2023-04-10T01:50:07;22.52;;;11.50;;
71038;SDS011;58692;43.212;27.908;2023-04-10T01:52:34;24.95;;;11.05;;
71038;SDS011;58692;43.212;27.908;2023-04-10T01:55:00;18.98;;;9.40;;
71038;SDS011;58692;43.212;27.908;2023-04-10T01:57:28;19.95;;;9.90;;
71038;SDS011;58692;43.212;27.908;2023-04-10T01:59:55;20.23;;;9.17;;
71038;SDS011;58692;43.212;27.908;2023-04-10T02:02:22;17.13;;;8.93;;
71038;SDS011;58692;43.212;27.908;2023-04-10T02:04:47;19.30;;;9.40;;
71038;SDS011;58692;43.212;27.908;2023-04-10T02:07:20;17.97;;;8.80;;
71038;SDS011;58692;43.212;27.908;2023-04-10T02:12:44;19.85;;;9.45;;
71038;SDS011;58692;43.212;27.908;2023-04-10T02:15:18;18.70;;;8.35;;
71038;SDS011;58692;43.212;27.908;2023-04-10T02:17:45;15.93;;;8.45;;
71038;SDS011;58692;43.212;27.908;2023-04-10T02:20:11;17.80;;;8.73;;
71038;SDS011;58692;43.212;27.908;2023-04-10T02:22:38;16.35;;;8.52;;
71038;SDS011;58692;43.212;27.908;2023-04-10T02:25:08;19.17;;;9.48;;
71038;SDS011;58692;43.212;27.908;2023-04-10T02:27:34;19.02;;;9.60;;
71038;SDS011;58692;43.212;27.908;2023-04-10T02:30:01;24.25;;;10.40;;
71038;SDS011;58692;43.212;27.908;2023-04-10T02:32:28;21.13;;;10.63;;
71038;SDS011;58692;43.212;27.908;2023-04-10T02:34:53;21.45;;;10.45;;
71038;SDS011;58692;43.212;27.908;2023-04-10T02:37:20;22.10;;;10.55;;
71038;SDS011;58692;43.212;27.908;2023-04-10T02:39:46;21.67;;;10.60;;
71038;SDS011;58692;43.212;27.908;2023-04-10T02:42:11;22.48;;;10.05;;
71038;SDS011;58692;43.212;27.908;2023-04-10T02:44:36;21.33;;;10.47;;
71038;SDS011;58692;43.212;27.908;2023-04-10T02:47:03;21.38;;;9.82;;
71038;SDS011;58692;43.212;27.908;2023-04-10T02:49:30;24.85;;;10.48;;
71038;SDS011;58692;43.212;27.908;2023-04-10T02:51:56;21.40;;;9.83;;
71038;SDS011;58692;43.212;27.908;2023-04-10T02:54:21;19.45;;;9.23;;
71038;SDS011;58692;43.212;27.908;2023-04-10T02:56:47;21.07;;;9.97;;
71038;SDS011;58692;43.212;27.908;2023-04-10T02:59:12;19.63;;;9.13;;
71038;SDS011;58692;43.212;27.908;2023-04-10T03:01:38;17.35;;;8.82;;
71038;SDS011;58692;43.212;27.908;2023-04-10T03:04:04;17.83;;;8.90;;
71038;SDS011;58692;43.212;27.908;2023-04-10T03:06:30;15.95;;;8.57;;
71038;SDS011;58692;43.212;27.908;2023-04-10T03:08:55;17.80;;;8.37;;
71038;SDS011;58692;43.212;27.908;2023-04-10T03:11:21;17.33;;;8.15;;
71038;SDS011;58692;43.212;27.908;2023-04-10T03:13:46;14.97;;;8.10;;
71038;SDS011;58692;43.212;27.908;2023-04-10T03:16:13;17.52;;;8.73;;
71038;SDS011;58692;43.212;27.908;2023-04-10T03:18:39;18.67;;;9.10;;
71038;SDS011;58692;43.212;27.908;2023-04-10T03:21:06;18.23;;;8.88;;
71038;SDS011;58692;43.212;27.908;2023-04-10T03:23:31;18.03;;;8.93;;
71038;SDS011;58692;43.212;27.908;2023-04-10T03:25:57;17.23;;;8.47;;
71038;SDS011;58692;43.212;27.908;2023-04-10T03:28:22;18.50;;;9.63;;
71038;SDS011;58692;43.212;27.908;2023-04-10T03:30:48;18.95;;;9.45;;
71038;SDS011;58692;43.212;27.908;2023-04-10T03:33:14;21.45;;;10.57;;
71038;SDS011;58692;43.212;27.908;2023-04-10T03:35:40;19.30;;;10.47;;
71038;SDS011;58692;43.212;27.908;2023-04-10T03:38:06;20.80;;;10.32;;
71038;SDS011;58692;43.212;27.908;2023-04-10T03:40:32;19.43;;;9.83;;
71038;SDS011;58692;43.212;27.908;2023-04-10T03:42:59;22.40;;;10.45;;
71038;SDS011;58692;43.212;27.908;2023-04-10T03:45:25;22.70;;;9.93;;
71038;SDS011;58692;43.212;27.908;2023-04-10T03:47:51;17.20;;;8.53;;
71038;SDS011;58692;43.212;27.908;2023-04-10T03:50:17;18.27;;;9.43;;
71038;SDS011;58692;43.212;27.908;2023-04-10T03:52:43;19.87;;;9.33;;
71038;SDS011;58692;43.212;27.908;2023-04-10T03:55:08;20.23;;;8.90;;
71038;SDS011;58692;43.212;27.908;2023-04-10T03:57:34;19.63;;;9.18;;
71038;SDS011;58692;43.212;27.908;2023-04-10T04:00:00;27.03;;;11.40;;
71038;SDS011;58692;43.212;27.908;2023-04-10T04:02:25;23.87;;;10.97;;
71038;SDS011;58692;43.212;27.908;2023-04-10T04:04:51;20.92;;;9.98;;
71038;SDS011;58692;43.212;27.908;2023-04-10T04:07:16;21.63;;;10.57;;
71038;SDS011;58692;43.212;27.908;2023-04-10T04:09:42;17.90;;;9.43;;
71038;SDS011;58692;43.212;27.908;2023-04-10T04:12:07;20.33;;;9.23;;
71038;SDS011;58692;43.212;27.908;2023-04-10T04:14:33;23.17;;;10.67;;
71038;SDS011;58692;43.212;27.908;2023-04-10T04:16:58;21.75;;;9.85;;
71038;SDS011;58692;43.212;27.908;2023-04-10T04:19:24;19.43;;;9.87;;
71038;SDS011;58692;43.212;27.908;2023-04-10T04:21:49;22.70;;;9.53;;
71038;SDS011;58692;43.212;27.908;2023-04-10T04:24:15;19.27;;;9.43;;
71038;SDS011;58692;43.212;27.908;2023-04-10T04:26:40;20.27;;;10.23;;
71038;SDS011;58692;43.212;27.908;2023-04-10T04:29:06;21.63;;;11.10;;
71038;SDS011;58692;43.212;27.908;2023-04-10T04:31:31;23.90;;;12.87;;
71038;SDS011;58692;43.212;27.908;2023-04-10T04:33:57;26.93;;;13.23;;
71038;SDS011;58692;43.212;27.908;2023-04-10T04:36:24;27.98;;;13.57;;
71038;SDS011;58692;43.212;27.908;2023-04-10T04:38:51;26.10;;;12.10;;
71038;SDS011;58692;43.212;27.908;2023-04-10T04:41:17;24.48;;;12.45;;
71038;SDS011;58692;43.212;27.908;2023-04-10T04:43:42;25.83;;;12.90;;
71038;SDS011;58692;43.212;27.908;2023-04-10T04:46:08;24.37;;;12.50;;
71038;SDS011;58692;43.212;27.908;2023-04-10T04:48:33;21.20;;;11.73;;
71038;SDS011;58692;43.212;27.908;2023-04-10T04:50:59;24.35;;;11.25;;
71038;SDS011;58692;43.212;27.908;2023-04-10T04:53:25;23.73;;;10.97;;
71038;SDS011;58692;43.212;27.908;2023-04-10T04:55:50;22.83;;;11.13;;
71038;SDS011;58692;43.212;27.908;2023-04-10T04:58:16;29.03;;;12.73;;
71038;SDS011;58692;43.212;27.908;2023-04-10T05:00:41;21.33;;;11.30;;
71038;SDS011;58692;43.212;27.908;2023-04-10T05:03:07;20.40;;;10.20;;
71038;SDS011;58692;43.212;27.908;2023-04-10T05:05:32;21.37;;;10.63;;
71038;SDS011;58692;43.212;27.908;2023-04-10T05:07:58;22.60;;;10.23;;
71038;SDS011;58692;43.212;27.908;2023-04-10T05:10:23;23.67;;;10.73;;
71038;SDS011;58692;43.212;27.908;2023-04-10T05:12:49;20.85;;;10.38;;
71038;SDS011;58692;43.212;27.908;2023-04-10T05:15:15;18.23;;;9.47;;
71038;SDS011;58692;43.212;27.908;2023-04-10T05:17:40;18.50;;;8.57;;
71038;SDS011;58692;43.212;27.908;2023-04-10T05:20:06;17.30;;;8.43;;
71038;SDS011;58692;43.212;27.908;2023-04-10T05:22:32;17.88;;;8.70;;
71038;SDS011;58692;43.212;27.908;2023-04-10T05:24:58;17.60;;;8.83;;
71038;SDS011;58692;43.212;27.908;2023-04-10T05:27:23;13.38;;;6.72;;
71038;SDS011;58692;43.212;27.908;2023-04-10T05:29:49;16.70;;;7.53;;
71038;SDS011;58692;43.212;27.908;2023-04-10T05:32:14;17.67;;;8.68;;
71038;SDS011;58692;43.212;27.908;2023-04-10T05:34:40;20.40;;;8.57;;
71038;SDS011;58692;43.212;27.908;2023-04-10T05:37:06;21.13;;;11.07;;
71038;SDS011;58692;43.212;27.908;2023-04-10T05:39:32;19.10;;;10.33;;
71038;SDS011;58692;43.212;27.908;2023-04-10T05:41:58;20.85;;;10.10;;
71038;SDS011;58692;43.212;27.908;2023-04-10T05:44:23;21.07;;;8.63;;
71038;SDS011;58692;43.212;27.908;2023-04-10T05:46:49;18.77;;;9.53;;
71038;SDS011;58692;43.212;27.908;2023-04-10T05:49:14;17.33;;;8.43;;
71038;SDS011;58692;43.212;27.908;2023-04-10T05:51:41;20.60;;;8.53;;
71038;SDS011;58692;43.212;27.908;2023-04-10T05:54:06;17.83;;;7.10;;
71038;SDS011;58692;43.212;27.908;2023-04-10T05:56:32;16.30;;;6.70;;
71038;SDS011;58692;43.212;27.908;2023-04-10T05:58:58;11.95;;;6.47;;
71038;SDS011;58692;43.212;27.908;2023-04-10T06:01:23;17.13;;;6.13;;
71038;SDS011;58692;43.212;27.908;2023-04-10T06:03:49;11.90;;;6.18;;
71038;SDS011;58692;43.212;27.908;2023-04-10T06:06:15;16.83;;;7.25;;
71038;SDS011;58692;43.212;27.908;2023-04-10T06:08:41;13.20;;;6.30;;
71038;SDS011;58692;43.212;27.908;2023-04-10T06:11:06;11.02;;;5.70;;
71038;SDS011;58692;43.212;27.908;2023-04-10T06:13:32;12.10;;;5.93;;
71038;SDS011;58692;43.212;27.908;2023-04-10T06:15:57;12.20;;;5.53;;
71038;SDS011;58692;43.212;27.908;2023-04-10T06:18:23;12.52;;;5.72;;
71038;SDS011;58692;43.212;27.908;2023-04-10T06:20:48;11.97;;;6.17;;
71038;SDS011;58692;43.212;27.908;2023-04-10T06:23:14;10.87;;;5.83;;
71038;SDS011;58692;43.212;27.908;2023-04-10T06:25:39;11.85;;;5.78;;
71038;SDS011;58692;43.212;27.908;2023-04-10T06:28:05;10.93;;;6.13;;
71038;SDS011;58692;43.212;27.908;2023-04-10T06:30:31;11.32;;;6.20;;
71038;SDS011;58692;43.212;27.908;2023-04-10T06:32:58;11.70;;;5.68;;
71038;SDS011;58692;43.212;27.908;2023-04-10T06:35:24;13.53;;;6.77;;
71038;SDS011;58692;43.212;27.908;2023-04-10T06:37:49;16.00;;;6.23;;
71038;SDS011;58692;43.212;27.908;2023-04-10T06:40:15;12.90;;;6.55;;
71038;SDS011;58692;43.212;27.908;2023-04-10T06:42:41;13.20;;;6.80;;
71038;SDS011;58692;43.212;27.908;2023-04-10T06:45:06;12.68;;;6.25;;
71038;SDS011;58692;43.212;27.908;2023-04-10T06:47:33;12.67;;;6.57;;
71038;SDS011;58692;43.212;27.908;2023-04-10T06:49:58;13.88;;;6.82;;
71038;SDS011;58692;43.212;27.908;2023-04-10T06:52:24;10.93;;;6.17;;
71038;SDS011;58692;43.212;27.908;2023-04-10T06:54:49;12.77;;;6.80;;
71038;SDS011;58692;43.212;27.908;2023-04-10T06:57:15;14.83;;;7.13;;
71038;SDS011;58692;43.212;27.908;2023-04-10T06:59:41;15.60;;;6.43;;
71038;SDS011;58692;43.212;27.908;2023-04-10T07:02:07;12.85;;;6.53;;
71038;SDS011;58692;43.212;27.908;2023-04-10T07:04:33;13.10;;;6.38;;
71038;SDS011;58692;43.212;27.908;2023-04-10T07:06:58;14.13;;;6.83;;
71038;SDS011;58692;43.212;27.908;2023-04-10T07:09:24;11.23;;;5.77;;
71038;SDS011;58692;43.212;27.908;2023-04-10T07:11:50;13.57;;;6.97;;
71038;SDS011;58692;43.212;27.908;2023-04-10T07:14:16;12.77;;;6.40;;
71038;SDS011;58692;43.212;27.908;2023-04-10T07:16:42;13.73;;;5.85;;
71038;SDS011;58692;43.212;27.908;2023-04-10T07:19:07;13.33;;;6.83;;
71038;SDS011;58692;43.212;27.908;2023-04-10T07:21:33;12.97;;;6.53;;
71038;SDS011;58692;43.212;27.908;2023-04-10T07:23:58;12.05;;;6.30;;
71038;SDS011;58692;43.212;27.908;2023-04-10T07:26:24;12.00;;;7.30;;
71038;SDS011;58692;43.212;27.908;2023-04-10T07:28:50;11.90;;;6.38;;
71038;SDS011;58692;43.212;27.908;2023-04-10T07:31:15;13.67;;;6.50;;
71038;SDS011;58692;43.212;27.908;2023-04-10T07:33:42;13.23;;;6.65;;
71038;SDS011;58692;43.212;27.908;2023-04-10T07:36:09;12.52;;;5.88;;
71038;SDS011;58692;43.212;27.908;2023-04-10T07:38:34;11.17;;;6.37;;
71038;SDS011;58692;43.212;27.908;2023-04-10T07:41:00;12.77;;;5.97;;
71038;SDS011;58692;43.212;27.908;2023-04-10T07:43:26;11.50;;;6.10;;
71038;SDS011;58692;43.212;27.908;2023-04-10T07:45:51;13.27;;;6.33;;
71038;SDS011;58692;43.212;27.908;2023-04-10T07:48:17;11.40;;;6.03;;
71038;SDS011;58692;43.212;27.908;2023-04-10T07:50:43;11.73;;;5.87;;
71038;SDS011;58692;43.212;27.908;2023-04-10T07:53:08;11.35;;;6.20;;
71038;SDS011;58692;43.212;27.908;2023-04-10T07:55:37;10.70;;;6.00;;
71038;SDS011;58692;43.212;27.908;2023-04-10T07:58:05;11.63;;;6.35;;
71038;SDS011;58692;43.212;27.908;2023-04-10T08:00:31;11.00;;;5.93;;
71038;SDS011;58692;43.212;27.908;2023-04-10T08:02:58;11.93;;;6.10;;
71038;SDS011;58692;43.212;27.908;2023-04-10T08:05:31;10.60;;;5.68;;
71038;SDS011;58692;43.212;27.908;2023-04-10T08:07:57;11.57;;;5.85;;
71038;SDS011;58692;43.212;27.908;2023-04-10T08:10:23;12.07;;;6.15;;
71038;SDS011;58692;43.212;27.908;2023-04-10T08:12:49;12.80;;;6.40;;
71038;SDS011;58692;43.212;27.908;2023-04-10T08:15:16;12.13;;;6.17;;
71038;SDS011;58692;43.212;27.908;2023-04-10T08:17:42;12.23;;;5.68;;
71038;SDS011;58692;43.212;27.908;2023-04-10T08:20:08;14.80;;;6.10;;
71038;SDS011;58692;43.212;27.908;2023-04-10T08:22:34;13.93;;;5.50;;
71038;SDS011;58692;43.212;27.908;2023-04-10T08:25:00;11.55;;;5.72;;
71038;SDS011;58692;43.212;27.908;2023-04-10T08:27:25;11.67;;;5.87;;
71038;SDS011;58692;43.212;27.908;2023-04-10T08:29:52;12.85;;;6.60;;
71038;SDS011;58692;43.212;27.908;2023-04-10T08:32:18;11.77;;;5.93;;
71038;SDS011;58692;43.212;27.908;2023-04-10T08:34:43;14.50;;;6.30;;
71038;SDS011;58692;43.212;27.908;2023-04-10T08:37:09;11.30;;;6.35;;
71038;SDS011;58692;43.212;27.908;2023-04-10T08:39:36;17.92;;;6.97;;
71038;SDS011;58692;43.212;27.908;2023-04-10T08:42:02;14.32;;;7.15;;
71038;SDS011;58692;43.212;27.908;2023-04-10T08:44:28;12.40;;;6.63;;
71038;SDS011;58692;43.212;27.908;2023-04-10T08:46:54;15.45;;;6.80;;
71038;SDS011;58692;43.212;27.908;2023-04-10T08:49:23;12.20;;;6.30;;
71038;SDS011;58692;43.212;27.908;2023-04-10T08:51:56;13.07;;;7.05;;
71038;SDS011;58692;43.212;27.908;2023-04-10T08:54:25;17.83;;;6.57;;
71038;SDS011;58692;43.212;27.908;2023-04-10T08:56:53;15.35;;;7.20;;
71038;SDS011;58692;43.212;27.908;2023-04-10T08:59:19;15.85;;;6.70;;
71038;SDS011;58692;43.212;27.908;2023-04-10T09:01:45;15.63;;;7.47;;
71038;SDS011;58692;43.212;27.908;2023-04-10T09:04:11;16.43;;;7.17;;
71038;SDS011;58692;43.212;27.908;2023-04-10T09:06:37;11.95;;;6.15;;
71038;SDS011;58692;43.212;27.908;2023-04-10T09:09:05;10.75;;;5.72;;
71038;SDS011;58692;43.212;27.908;2023-04-10T09:14:20;12.80;;;6.07;;
71038;SDS011;58692;43.212;27.908;2023-04-10T09:16:46;14.10;;;6.65;;
71038;SDS011;58692;43.212;27.908;2023-04-10T09:19:12;14.10;;;7.10;;
71038;SDS011;58692;43.212;27.908;2023-04-10T09:21:37;14.07;;;7.57;;
71038;SDS011;58692;43.212;27.908;2023-04-10T09:24:03;15.20;;;7.43;;
71038;SDS011;58692;43.212;27.908;2023-04-10T09:26:30;13.40;;;7.30;;
71038;SDS011;58692;43.212;27.908;2023-04-10T09:28:58;19.55;;;7.72;;
71038;SDS011;58692;43.212;27.908;2023-04-10T09:31:26;16.13;;;8.25;;
71038;SDS011;58692;43.212;27.908;2023-04-10T09:34:05;13.85;;;7.68;;
71038;SDS011;58692;43.212;27.908;2023-04-10T09:36:32;15.10;;;7.40;;
71038;SDS011;58692;43.212;27.908;2023-04-10T09:38:58;16.80;;;7.97;;
71038;SDS011;58692;43.212;27.908;2023-04-10T09:41:23;16.60;;;8.37;;
71038;SDS011;58692;43.212;27.908;2023-04-10T09:43:49;15.65;;;8.00;;
71038;SDS011;58692;43.212;27.908;2023-04-10T09:46:31;15.30;;;7.47;;
71038;SDS011;58692;43.212;27.908;2023-04-10T09:48:58;13.87;;;7.00;;
71038;SDS011;58692;43.212;27.908;2023-04-10T09:51:30;16.80;;;7.55;;
71038;SDS011;58692;43.212;27.908;2023-04-10T09:54:03;15.00;;;6.70;;
71038;SDS011;58692;43.212;27.908;2023-04-10T09:56:29;13.93;;;6.80;;
71038;SDS011;58692;43.212;27.908;2023-04-10T09:59:01;15.80;;;7.30;;
71038;SDS011;58692;43.212;27.908;2023-04-10T10:01:28;12.75;;;6.63;;
71038;SDS011;58692;43.212;27.908;2023-04-10T10:04:00;16.63;;;6.85;;
71038;SDS011;58692;43.212;27.908;2023-04-10T10:06:28;12.10;;;5.93;;
71038;SDS011;58692;43.212;27.908;2023-04-10T10:08:56;13.43;;;5.65;;
71038;SDS011;58692;43.212;27.908;2023-04-10T10:11:25;13.23;;;5.78;;
71038;SDS011;58692;43.212;27.908;2023-04-10T10:13:52;11.95;;;5.20;;
71038;SDS011;58692;43.212;27.908;2023-04-10T10:16:20;10.52;;;5.20;;
71038;SDS011;58692;43.212;27.908;2023-04-10T10:19:00;16.60;;;5.70;;
71038;SDS011;58692;43.212;27.908;2023-04-10T10:21:33;8.70;;;5.07;;
71038;SDS011;58692;43.212;27.908;2023-04-10T10:24:00;12.65;;;5.50;;
71038;SDS011;58692;43.212;27.908;2023-04-10T10:26:27;11.13;;;5.30;;
71038;SDS011;58692;43.212;27.908;2023-04-10T10:28:56;14.05;;;5.47;;
71038;SDS011;58692;43.212;27.908;2023-04-10T10:31:24;12.33;;;5.53;;
71038;SDS011;58692;43.212;27.908;2023-04-10T10:33:50;14.20;;;6.07;;
71038;SDS011;58692;43.212;27.908;2023-04-10T10:36:16;10.45;;;5.28;;
71038;SDS011;58692;43.212;27.908;2023-04-10T10:38:54;11.60;;;5.80;;
71038;SDS011;58692;43.212;27.908;2023-04-10T10:41:39;10.98;;;5.32;;
71038;SDS011;58692;43.212;27.908;2023-04-10T10:44:10;11.33;;;5.10;;
71038;SDS011;58692;43.212;27.908;2023-04-10T10:52:15;11.10;;;5.40;;
71038;SDS011;58692;43.212;27.908;2023-04-10T10:57:57;11.47;;;5.67;;
71038;SDS011;58692;43.212;27.908;2023-04-10T11:00:27;10.63;;;5.32;;
71038;SDS011;58692;43.212;27.908;2023-04-10T11:03:30;10.02;;;4.90;;
71038;SDS011;58692;43.212;27.908;2023-04-10T11:05:56;10.60;;;5.33;;
71038;SDS011;58692;43.212;27.908;2023-04-10T11:08:35;9.30;;;5.13;;
71038;SDS011;58692;43.212;27.908;2023-04-10T11:11:09;10.52;;;5.60;;
71038;SDS011;58692;43.212;27.908;2023-04-10T11:13:40;11.65;;;5.20;;
71038;SDS011;58692;43.212;27.908;2023-04-10T11:16:08;12.45;;;5.53;;
71038;SDS011;58692;43.212;27.908;2023-04-10T11:21:16;9.65;;;5.60;;
71038;SDS011;58692;43.212;27.908;2023-04-10T11:26:37;12.77;;;5.70;;
71038;SDS011;58692;43.212;27.908;2023-04-10T11:31:29;9.27;;;5.40;;
71038;SDS011;58692;43.212;27.908;2023-04-10T11:36:23;11.50;;;5.50;;
71038;SDS011;58692;43.212;27.908;2023-04-10T11:39:07;10.33;;;5.10;;
71038;SDS011;58692;43.212;27.908;2023-04-10T11:41:38;13.77;;;5.15;;
71038;SDS011;58692;43.212;27.908;2023-04-10T11:44:06;10.25;;;5.20;;
71038;SDS011;58692;43.212;27.908;2023-04-10T11:46:35;10.07;;;4.85;;
71038;SDS011;58692;43.212;27.908;2023-04-10T11:49:03;9.23;;;5.00;;
71038;SDS011;58692;43.212;27.908;2023-04-10T11:51:30;8.50;;;4.60;;
71038;SDS011;58692;43.212;27.908;2023-04-10T11:54:06;10.00;;;5.00;;
71038;SDS011;58692;43.212;27.908;2023-04-10T11:56:34;10.95;;;5.38;;
71038;SDS011;58692;43.212;27.908;2023-04-10T11:59:01;14.45;;;5.47;;
71038;SDS011;58692;43.212;27.908;2023-04-10T12:01:31;9.43;;;5.03;;
71038;SDS011;58692;43.212;27.908;2023-04-10T12:03:57;11.45;;;5.35;;
71038;SDS011;58692;43.212;27.908;2023-04-10T12:06:23;13.82;;;5.75;;
71038;SDS011;58692;43.212;27.908;2023-04-10T12:08:49;10.10;;;5.50;;
71038;SDS011;58692;43.212;27.908;2023-04-10T12:11:16;11.73;;;5.17;;
71038;SDS011;58692;43.212;27.908;2023-04-10T12:13:45;12.07;;;6.13;;
71038;SDS011;58692;43.212;27.908;2023-04-10T12:16:12;15.00;;;5.68;;
71038;SDS011;58692;43.212;27.908;2023-04-10T12:18:38;13.10;;;6.20;;
71038;SDS011;58692;43.212;27.908;2023-04-10T12:21:04;12.53;;;5.03;;
71038;SDS011;58692;43.212;27.908;2023-04-10T12:23:31;10.77;;;5.18;;
71038;SDS011;58692;43.212;27.908;2023-04-10T12:28:39;10.18;;;5.13;;
71038;SDS011;58692;43.212;27.908;2023-04-10T12:31:06;9.07;;;4.93;;
71038;SDS011;58692;43.212;27.908;2023-04-10T12:33:32;10.77;;;4.55;;
71038;SDS011;58692;43.212;27.908;2023-04-10T12:35:58;8.98;;;4.63;;
71038;SDS011;58692;43.212;27.908;2023-04-10T12:41:06;10.30;;;4.63;;
71038;SDS011;58692;43.212;27.908;2023-04-10T12:43:34;9.90;;;4.47;;
71038;SDS011;58692;43.212;27.908;2023-04-10T12:46:02;8.63;;;4.65;;
71038;SDS011;58692;43.212;27.908;2023-04-10T12:48:28;9.00;;;4.73;;
71038;SDS011;58692;43.212;27.908;2023-04-10T12:50:54;11.70;;;4.70;;
71038;SDS011;58692;43.212;27.908;2023-04-10T12:53:20;10.23;;;4.95;;
71038;SDS011;58692;43.212;27.908;2023-04-10T12:58:29;10.65;;;4.80;;
71038;SDS011;58692;43.212;27.908;2023-04-10T13:00:57;13.35;;;4.80;;
71038;SDS011;58692;43.212;27.908;2023-04-10T13:03:24;11.80;;;4.50;;
71038;SDS011;58692;43.212;27.908;2023-04-10T13:05:50;10.47;;;4.60;;
71038;SDS011;58692;43.212;27.908;2023-04-10T13:08:16;9.43;;;4.47;;
71038;SDS011;58692;43.212;27.908;2023-04-10T13:10:41;9.93;;;4.68;;
71038;SDS011;58692;43.212;27.908;2023-04-10T13:13:07;12.03;;;5.10;;
71038;SDS011;58692;43.212;27.908;2023-04-10T13:15:36;10.27;;;4.55;;
71038;SDS011;58692;43.212;27.908;2023-04-10T13:18:01;11.57;;;4.40;;
71038;SDS011;58692;43.212;27.908;2023-04-10T13:20:27;9.90;;;4.17;;
71038;SDS011;58692;43.212;27.908;2023-04-10T13:22:53;8.48;;;4.30;;
71038;SDS011;58692;43.212;27.908;2023-04-10T13:25:19;8.77;;;4.17;;
71038;SDS011;58692;43.212;27.908;2023-04-10T13:27:46;10.80;;;4.40;;
71038;SDS011;58692;43.212;27.908;2023-04-10T13:30:12;9.87;;;4.03;;
71038;SDS011;58692;43.212;27.908;2023-04-10T13:32:37;11.38;;;4.53;;
71038;SDS011;58692;43.212;27.908;2023-04-10T13:35:03;8.37;;;4.17;;
71038;SDS011;58692;43.212;27.908;2023-04-10T13:37:28;10.07;;;4.32;;
71038;SDS011;58692;43.212;27.908;2023-04-10T13:39:54;11.47;;;4.30;;
71038;SDS011;58692;43.212;27.908;2023-04-10T13:42:20;7.10;;;3.60;;
71038;SDS011;58692;43.212;27.908;2023-04-10T13:44:46;9.83;;;4.43;;
71038;SDS011;58692;43.212;27.908;2023-04-10T13:47:12;9.77;;;3.92;;
71038;SDS011;58692;43.212;27.908;2023-04-10T13:49:38;8.48;;;4.20;;
71038;SDS011;58692;43.212;27.908;2023-04-10T13:52:03;8.50;;;4.23;;
71038;SDS011;58692;43.212;27.908;2023-04-10T13:54:29;10.20;;;3.95;;
71038;SDS011;58692;43.212;27.908;2023-04-10T13:56:54;8.70;;;3.90;;
71038;SDS011;58692;43.212;27.908;2023-04-10T13:59:21;10.93;;;4.53;;
71038;SDS011;58692;43.212;27.908;2023-04-10T14:01:47;11.17;;;4.40;;
71038;SDS011;58692;43.212;27.908;2023-04-10T14:04:16;10.63;;;4.78;;
71038;SDS011;58692;43.212;27.908;2023-04-10T14:06:41;9.30;;;3.90;;
71038;SDS011;58692;43.212;27.908;2023-04-10T14:09:06;8.40;;;3.93;;
71038;SDS011;58692;43.212;27.908;2023-04-10T14:11:33;7.18;;;3.75;;
71038;SDS011;58692;43.212;27.908;2023-04-10T14:13:58;10.10;;;4.10;;
71038;SDS011;58692;43.212;27.908;2023-04-10T14:16:25;8.63;;;4.17;;
71038;SDS011;58692;43.212;27.908;2023-04-10T14:18:50;8.15;;;4.20;;
71038;SDS011;58692;43.212;27.908;2023-04-10T14:21:15;8.33;;;3.83;;
71038;SDS011;58692;43.212;27.908;2023-04-10T14:23:41;8.73;;;4.00;;
71038;SDS011;58692;43.212;27.908;2023-04-10T14:26:07;8.40;;;3.90;;
71038;SDS011;58692;43.212;27.908;2023-04-10T14:28:32;8.57;;;4.07;;
71038;SDS011;58692;43.212;27.908;2023-04-10T14:30:58;7.80;;;4.00;;
71038;SDS011;58692;43.212;27.908;2023-04-10T14:33:24;8.23;;;4.17;;
71038;SDS011;58692;43.212;27.908;2023-04-10T14:35:49;12.15;;;4.53;;
71038;SDS011;58692;43.212;27.908;2023-04-10T14:38:15;9.03;;;4.40;;
71038;SDS011;58692;43.212;27.908;2023-04-10T14:40:41;10.90;;;4.53;;
71038;SDS011;58692;43.212;27.908;2023-04-10T14:43:06;10.67;;;3.93;;
71038;SDS011;58692;43.212;27.908;2023-04-10T14:45:32;9.18;;;4.05;;
71038;SDS011;58692;43.212;27.908;2023-04-10T14:47:58;8.98;;;4.18;;
71038;SDS011;58692;43.212;27.908;2023-04-10T14:50:24;8.38;;;4.30;;
71038;SDS011;58692;43.212;27.908;2023-04-10T14:52:51;7.87;;;3.93;;
71038;SDS011;58692;43.212;27.908;2023-04-10T14:55:16;8.52;;;3.80;;
71038;SDS011;58692;43.212;27.908;2023-04-10T14:57:42;9.87;;;4.00;;
71038;SDS011;58692;43.212;27.908;2023-04-10T15:00:07;9.10;;;3.90;;
71038;SDS011;58692;43.212;27.908;2023-04-10T15:02:33;8.17;;;3.83;;
71038;SDS011;58692;43.212;27.908;2023-04-10T15:04:59;8.82;;;4.20;;
71038;SDS011;58692;43.212;27.908;2023-04-10T15:07:24;8.33;;;4.30;;